sensor_id;sensor_type;location;lat;lon;timestamp;P1;durP1;ratioP1;P2;durP2;ratioP2
5801;SDS011;2927;49.366;8.530;2023-02-13T00:01:13;89.70;;;29.37;;
5801;SDS011;2927;49.366;8.530;2023-02-13T00:03:39;96.60;;;27.67;;
5801;SDS011;2927;49.366;8.530;2023-02-13T00:06:04;91.07;;;28.40;;
5801;SDS011;2927;49.366;8.530;2023-02-13T00:08:30;99.63;;;25.77;;
5801;SDS011;2927;49.366;8.530;2023-02-13T00:10:55;94.87;;;25.90;;
5801;SDS011;2927;49.366;8.530;2023-02-13T00:13:21;74.00;;;23.80;;
5801;SDS011;2927;49.366;8.530;2023-02-13T00:15:53;73.93;;;20.83;;
5801;SDS011;2927;49.366;8.530;2023-02-13T00:18:23;77.13;;;23.30;;
5801;SDS011;2927;49.366;8.530;2023-02-13T00:20:58;61.80;;;21.37;;
5801;SDS011;2927;49.366;8.530;2023-02-13T00:23:25;70.63;;;21.70;;
5801;SDS011;2927;49.366;8.530;2023-02-13T00:25:51;87.00;;;23.87;;
5801;SDS011;2927;49.366;8.530;2023-02-13T00:28:16;56.90;;;20.17;;
5801;SDS011;2927;49.366;8.530;2023-02-13T00:30:42;56.77;;;19.90;;
5801;SDS011;2927;49.366;8.530;2023-02-13T00:33:07;69.20;;;21.57;;
5801;SDS011;2927;49.366;8.530;2023-02-13T00:35:33;77.63;;;23.10;;
5801;SDS011;2927;49.366;8.530;2023-02-13T00:37:58;73.70;;;22.63;;
5801;SDS011;2927;49.366;8.530;2023-02-13T00:40:24;82.93;;;24.30;;
5801;SDS011;2927;49.366;8.530;2023-02-13T00:42:49;76.43;;;24.00;;
5801;SDS011;2927;49.366;8.530;2023-02-13T00:45:15;67.30;;;22.17;;
5801;SDS011;2927;49.366;8.530;2023-02-13T00:47:40;77.33;;;22.70;;
5801;SDS011;2927;49.366;8.530;2023-02-13T00:50:06;77.10;;;21.57;;
5801;SDS011;2927;49.366;8.530;2023-02-13T00:52:32;61.90;;;24.00;;
5801;SDS011;2927;49.366;8.530;2023-02-13T00:54:58;59.83;;;22.00;;
5801;SDS011;2927;49.366;8.530;2023-02-13T00:57:23;64.43;;;22.30;;
5801;SDS011;2927;49.366;8.530;2023-02-13T00:59:49;64.27;;;20.70;;
5801;SDS011;2927;49.366;8.530;2023-02-13T01:02:14;59.43;;;21.87;;
5801;SDS011;2927;49.366;8.530;2023-02-13T01:04:40;63.93;;;22.43;;
5801;SDS011;2927;49.366;8.530;2023-02-13T01:07:05;49.70;;;20.77;;
5801;SDS011;2927;49.366;8.530;2023-02-13T01:09:31;61.10;;;21.73;;
5801;SDS011;2927;49.366;8.530;2023-02-13T01:11:56;58.17;;;21.90;;
5801;SDS011;2927;49.366;8.530;2023-02-13T01:14:22;60.20;;;20.93;;
5801;SDS011;2927;49.366;8.530;2023-02-13T01:16:47;60.30;;;20.33;;
5801;SDS011;2927;49.366;8.530;2023-02-13T01:19:13;46.73;;;20.83;;
5801;SDS011;2927;49.366;8.530;2023-02-13T01:21:38;49.30;;;19.87;;
5801;SDS011;2927;49.366;8.530;2023-02-13T01:24:04;48.83;;;20.97;;
5801;SDS011;2927;49.366;8.530;2023-02-13T01:26:30;46.17;;;19.50;;
5801;SDS011;2927;49.366;8.530;2023-02-13T01:28:55;54.07;;;20.90;;
5801;SDS011;2927;49.366;8.530;2023-02-13T01:31:22;48.67;;;21.90;;
5801;SDS011;2927;49.366;8.530;2023-02-13T01:33:47;41.10;;;18.70;;
5801;SDS011;2927;49.366;8.530;2023-02-13T01:36:13;40.30;;;19.00;;
5801;SDS011;2927;49.366;8.530;2023-02-13T01:38:39;42.87;;;19.63;;
5801;SDS011;2927;49.366;8.530;2023-02-13T01:41:05;46.10;;;21.33;;
5801;SDS011;2927;49.366;8.530;2023-02-13T01:43:42;50.20;;;20.60;;
5801;SDS011;2927;49.366;8.530;2023-02-13T01:46:27;47.23;;;19.47;;
5801;SDS011;2927;49.366;8.530;2023-02-13T01:49:03;40.53;;;20.80;;
5801;SDS011;2927;49.366;8.530;2023-02-13T01:51:50;52.43;;;21.63;;
5801;SDS011;2927;49.366;8.530;2023-02-13T01:54:20;46.30;;;18.83;;
5801;SDS011;2927;49.366;8.530;2023-02-13T01:56:57;43.97;;;19.80;;
5801;SDS011;2927;49.366;8.530;2023-02-13T02:02:23;40.77;;;18.77;;
5801;SDS011;2927;49.366;8.530;2023-02-13T02:04:48;41.53;;;19.60;;
5801;SDS011;2927;49.366;8.530;2023-02-13T02:07:25;44.00;;;18.93;;
5801;SDS011;2927;49.366;8.530;2023-02-13T02:09:53;40.80;;;19.70;;
5801;SDS011;2927;49.366;8.530;2023-02-13T02:15:03;42.97;;;20.10;;
5801;SDS011;2927;49.366;8.530;2023-02-13T02:17:29;51.70;;;21.80;;
5801;SDS011;2927;49.366;8.530;2023-02-13T02:19:59;60.27;;;22.33;;
5801;SDS011;2927;49.366;8.530;2023-02-13T02:26:15;65.07;;;20.47;;
5801;SDS011;2927;49.366;8.530;2023-02-13T02:31:47;47.80;;;19.57;;
5801;SDS011;2927;49.366;8.530;2023-02-13T02:34:30;53.60;;;20.20;;
5801;SDS011;2927;49.366;8.530;2023-02-13T02:40:02;53.27;;;20.30;;
5801;SDS011;2927;49.366;8.530;2023-02-13T02:48:48;42.17;;;19.77;;
5801;SDS011;2927;49.366;8.530;2023-02-13T02:54:39;44.30;;;18.77;;
5801;SDS011;2927;49.366;8.530;2023-02-13T02:57:31;48.90;;;20.77;;
5801;SDS011;2927;49.366;8.530;2023-02-13T03:00:29;47.90;;;19.53;;
5801;SDS011;2927;49.366;8.530;2023-02-13T03:03:18;42.60;;;19.30;;
5801;SDS011;2927;49.366;8.530;2023-02-13T03:08:55;51.70;;;21.00;;
5801;SDS011;2927;49.366;8.530;2023-02-13T03:11:43;65.47;;;21.50;;
5801;SDS011;2927;49.366;8.530;2023-02-13T03:14:31;40.00;;;18.00;;
5801;SDS011;2927;49.366;8.530;2023-02-13T03:16:57;45.97;;;19.47;;
5801;SDS011;2927;49.366;8.530;2023-02-13T03:19:51;54.03;;;21.73;;
5801;SDS011;2927;49.366;8.530;2023-02-13T03:22:41;51.53;;;21.33;;
5801;SDS011;2927;49.366;8.530;2023-02-13T03:42:19;61.97;;;21.33;;
5801;SDS011;2927;49.366;8.530;2023-02-13T03:44:57;52.23;;;21.60;;
5801;SDS011;2927;49.366;8.530;2023-02-13T03:47:46;43.43;;;19.27;;
5801;SDS011;2927;49.366;8.530;2023-02-13T03:50:15;52.30;;;21.47;;
5801;SDS011;2927;49.366;8.530;2023-02-13T03:55:20;48.87;;;19.10;;
5801;SDS011;2927;49.366;8.530;2023-02-13T03:58:08;44.97;;;17.93;;
5801;SDS011;2927;49.366;8.530;2023-02-13T04:01:07;40.00;;;17.90;;
5801;SDS011;2927;49.366;8.530;2023-02-13T04:03:36;41.83;;;18.77;;
5801;SDS011;2927;49.366;8.530;2023-02-13T04:06:15;42.80;;;21.10;;
5801;SDS011;2927;49.366;8.530;2023-02-13T04:08:44;43.87;;;19.83;;
5801;SDS011;2927;49.366;8.530;2023-02-13T04:11:17;44.83;;;19.10;;
5801;SDS011;2927;49.366;8.530;2023-02-13T04:13:56;63.33;;;22.30;;
5801;SDS011;2927;49.366;8.530;2023-02-13T04:16:36;51.07;;;19.47;;
5801;SDS011;2927;49.366;8.530;2023-02-13T04:19:08;43.13;;;18.17;;
5801;SDS011;2927;49.366;8.530;2023-02-13T04:21:36;46.20;;;19.77;;
5801;SDS011;2927;49.366;8.530;2023-02-13T04:24:04;55.73;;;20.80;;
5801;SDS011;2927;49.366;8.530;2023-02-13T04:26:48;53.60;;;21.20;;
5801;SDS011;2927;49.366;8.530;2023-02-13T04:29:14;63.93;;;21.03;;
5801;SDS011;2927;49.366;8.530;2023-02-13T04:31:39;60.60;;;22.70;;
5801;SDS011;2927;49.366;8.530;2023-02-13T04:34:05;60.47;;;21.40;;
5801;SDS011;2927;49.366;8.530;2023-02-13T04:36:30;58.20;;;21.73;;
5801;SDS011;2927;49.366;8.530;2023-02-13T04:38:56;87.80;;;24.77;;
5801;SDS011;2927;49.366;8.530;2023-02-13T04:41:22;76.67;;;27.77;;
5801;SDS011;2927;49.366;8.530;2023-02-13T04:43:48;95.00;;;30.80;;
5801;SDS011;2927;49.366;8.530;2023-02-13T04:46:15;112.00;;;33.27;;
5801;SDS011;2927;49.366;8.530;2023-02-13T04:48:41;83.00;;;26.93;;
5801;SDS011;2927;49.366;8.530;2023-02-13T04:51:06;98.70;;;31.17;;
5801;SDS011;2927;49.366;8.530;2023-02-13T04:53:32;103.37;;;27.60;;
5801;SDS011;2927;49.366;8.530;2023-02-13T04:55:57;81.67;;;26.70;;
5801;SDS011;2927;49.366;8.530;2023-02-13T04:58:23;100.20;;;34.13;;
5801;SDS011;2927;49.366;8.530;2023-02-13T05:00:48;112.30;;;35.60;;
5801;SDS011;2927;49.366;8.530;2023-02-13T05:03:14;101.97;;;36.10;;
5801;SDS011;2927;49.366;8.530;2023-02-13T05:05:39;124.00;;;36.13;;
5801;SDS011;2927;49.366;8.530;2023-02-13T05:08:05;107.20;;;31.70;;
5801;SDS011;2927;49.366;8.530;2023-02-13T05:10:32;91.13;;;27.67;;
5801;SDS011;2927;49.366;8.530;2023-02-13T05:12:58;57.00;;;22.10;;
5801;SDS011;2927;49.366;8.530;2023-02-13T05:15:23;90.07;;;27.60;;
5801;SDS011;2927;49.366;8.530;2023-02-13T05:17:49;87.70;;;28.20;;
5801;SDS011;2927;49.366;8.530;2023-02-13T05:20:15;101.57;;;29.07;;
5801;SDS011;2927;49.366;8.530;2023-02-13T05:22:45;120.63;;;32.37;;
5801;SDS011;2927;49.366;8.530;2023-02-13T05:25:29;153.83;;;37.03;;
5801;SDS011;2927;49.366;8.530;2023-02-13T05:27:55;132.73;;;36.07;;
5801;SDS011;2927;49.366;8.530;2023-02-13T05:30:21;93.10;;;31.17;;
5801;SDS011;2927;49.366;8.530;2023-02-13T05:32:46;93.73;;;29.10;;
5801;SDS011;2927;49.366;8.530;2023-02-13T05:35:14;79.23;;;24.57;;
5801;SDS011;2927;49.366;8.530;2023-02-13T05:37:40;67.83;;;24.80;;
5801;SDS011;2927;49.366;8.530;2023-02-13T05:40:06;60.40;;;22.30;;
5801;SDS011;2927;49.366;8.530;2023-02-13T05:42:31;116.30;;;24.87;;
5801;SDS011;2927;49.366;8.530;2023-02-13T05:44:57;67.67;;;19.27;;
5801;SDS011;2927;49.366;8.530;2023-02-13T05:47:22;90.27;;;21.33;;
5801;SDS011;2927;49.366;8.530;2023-02-13T05:49:48;84.17;;;24.67;;
5801;SDS011;2927;49.366;8.530;2023-02-13T05:52:13;114.03;;;23.43;;
5801;SDS011;2927;49.366;8.530;2023-02-13T05:54:39;84.67;;;24.07;;
5801;SDS011;2927;49.366;8.530;2023-02-13T05:57:04;62.23;;;21.70;;
5801;SDS011;2927;49.366;8.530;2023-02-13T05:59:30;66.30;;;25.37;;
5801;SDS011;2927;49.366;8.530;2023-02-13T06:01:55;72.93;;;25.17;;
5801;SDS011;2927;49.366;8.530;2023-02-13T06:04:21;56.87;;;22.70;;
5801;SDS011;2927;49.366;8.530;2023-02-13T06:06:46;65.30;;;22.70;;
5801;SDS011;2927;49.366;8.530;2023-02-13T06:09:12;61.97;;;24.37;;
5801;SDS011;2927;49.366;8.530;2023-02-13T06:11:37;69.97;;;22.63;;
5801;SDS011;2927;49.366;8.530;2023-02-13T06:14:03;61.03;;;23.30;;
5801;SDS011;2927;49.366;8.530;2023-02-13T06:16:29;55.10;;;19.90;;
5801;SDS011;2927;49.366;8.530;2023-02-13T06:18:58;65.33;;;26.80;;
5801;SDS011;2927;49.366;8.530;2023-02-13T06:21:24;81.73;;;33.50;;
5801;SDS011;2927;49.366;8.530;2023-02-13T06:23:49;84.87;;;31.47;;
5801;SDS011;2927;49.366;8.530;2023-02-13T06:26:15;91.83;;;32.90;;
5801;SDS011;2927;49.366;8.530;2023-02-13T06:28:40;87.07;;;30.87;;
5801;SDS011;2927;49.366;8.530;2023-02-13T06:31:06;73.90;;;25.97;;
5801;SDS011;2927;49.366;8.530;2023-02-13T06:33:31;73.70;;;24.20;;
5801;SDS011;2927;49.366;8.530;2023-02-13T06:35:57;136.83;;;38.40;;
5801;SDS011;2927;49.366;8.530;2023-02-13T06:38:22;124.83;;;37.30;;
5801;SDS011;2927;49.366;8.530;2023-02-13T06:40:48;98.03;;;34.83;;
5801;SDS011;2927;49.366;8.530;2023-02-13T06:43:14;88.30;;;31.23;;
5801;SDS011;2927;49.366;8.530;2023-02-13T06:45:41;53.53;;;23.40;;
5801;SDS011;2927;49.366;8.530;2023-02-13T06:48:07;63.97;;;24.50;;
5801;SDS011;2927;49.366;8.530;2023-02-13T06:50:33;56.63;;;24.50;;
5801;SDS011;2927;49.366;8.530;2023-02-13T06:52:59;50.67;;;21.90;;
5801;SDS011;2927;49.366;8.530;2023-02-13T06:55:24;43.00;;;21.00;;
5801;SDS011;2927;49.366;8.530;2023-02-13T06:57:50;46.10;;;19.77;;
5801;SDS011;2927;49.366;8.530;2023-02-13T07:00:16;46.83;;;19.10;;
5801;SDS011;2927;49.366;8.530;2023-02-13T07:02:43;43.50;;;18.80;;
5801;SDS011;2927;49.366;8.530;2023-02-13T07:05:11;44.83;;;19.20;;
5801;SDS011;2927;49.366;8.530;2023-02-13T07:07:37;46.47;;;20.00;;
5801;SDS011;2927;49.366;8.530;2023-02-13T07:10:05;49.17;;;19.97;;
5801;SDS011;2927;49.366;8.530;2023-02-13T07:12:32;45.10;;;18.60;;
5801;SDS011;2927;49.366;8.530;2023-02-13T07:14:58;48.83;;;20.60;;
5801;SDS011;2927;49.366;8.530;2023-02-13T07:17:25;55.33;;;21.10;;
5801;SDS011;2927;49.366;8.530;2023-02-13T07:19:51;49.20;;;21.50;;
5801;SDS011;2927;49.366;8.530;2023-02-13T07:22:16;49.37;;;20.77;;
5801;SDS011;2927;49.366;8.530;2023-02-13T07:24:42;50.83;;;19.73;;
5801;SDS011;2927;49.366;8.530;2023-02-13T07:27:08;46.10;;;21.43;;
5801;SDS011;2927;49.366;8.530;2023-02-13T07:29:33;60.17;;;23.23;;
5801;SDS011;2927;49.366;8.530;2023-02-13T07:31:59;57.73;;;21.93;;
5801;SDS011;2927;49.366;8.530;2023-02-13T07:34:24;57.10;;;23.93;;
5801;SDS011;2927;49.366;8.530;2023-02-13T07:36:50;66.80;;;24.07;;
5801;SDS011;2927;49.366;8.530;2023-02-13T07:39:16;69.40;;;25.40;;
5801;SDS011;2927;49.366;8.530;2023-02-13T07:41:41;67.43;;;25.00;;
5801;SDS011;2927;49.366;8.530;2023-02-13T07:44:07;59.40;;;24.60;;
5801;SDS011;2927;49.366;8.530;2023-02-13T07:46:32;61.70;;;24.80;;
5801;SDS011;2927;49.366;8.530;2023-02-13T07:48:58;58.37;;;25.87;;
5801;SDS011;2927;49.366;8.530;2023-02-13T07:51:23;64.87;;;24.63;;
5801;SDS011;2927;49.366;8.530;2023-02-13T07:53:50;67.47;;;24.87;;
5801;SDS011;2927;49.366;8.530;2023-02-13T07:56:16;61.77;;;24.20;;
5801;SDS011;2927;49.366;8.530;2023-02-13T07:58:42;62.33;;;25.27;;
5801;SDS011;2927;49.366;8.530;2023-02-13T08:01:09;67.60;;;27.87;;
5801;SDS011;2927;49.366;8.530;2023-02-13T08:03:36;90.30;;;31.70;;
5801;SDS011;2927;49.366;8.530;2023-02-13T08:06:02;91.57;;;33.00;;
5801;SDS011;2927;49.366;8.530;2023-02-13T08:08:28;89.70;;;34.13;;
5801;SDS011;2927;49.366;8.530;2023-02-13T08:10:54;82.33;;;32.73;;
5801;SDS011;2927;49.366;8.530;2023-02-13T08:13:39;79.33;;;27.80;;
5801;SDS011;2927;49.366;8.530;2023-02-13T08:16:05;79.73;;;29.67;;
5801;SDS011;2927;49.366;8.530;2023-02-13T08:18:31;79.63;;;30.10;;
5801;SDS011;2927;49.366;8.530;2023-02-13T08:20:56;74.00;;;29.33;;
5801;SDS011;2927;49.366;8.530;2023-02-13T08:23:22;66.57;;;26.70;;
5801;SDS011;2927;49.366;8.530;2023-02-13T08:25:47;81.80;;;30.10;;
5801;SDS011;2927;49.366;8.530;2023-02-13T08:28:14;87.03;;;29.60;;
5801;SDS011;2927;49.366;8.530;2023-02-13T08:30:40;76.17;;;29.40;;
5801;SDS011;2927;49.366;8.530;2023-02-13T08:33:06;79.33;;;29.57;;
5801;SDS011;2927;49.366;8.530;2023-02-13T08:35:31;68.07;;;24.83;;
5801;SDS011;2927;49.366;8.530;2023-02-13T08:38:01;72.90;;;26.80;;
5801;SDS011;2927;49.366;8.530;2023-02-13T08:40:28;74.17;;;27.27;;
5801;SDS011;2927;49.366;8.530;2023-02-13T08:42:58;53.70;;;23.00;;
5801;SDS011;2927;49.366;8.530;2023-02-13T08:45:25;51.47;;;21.80;;
5801;SDS011;2927;49.366;8.530;2023-02-13T08:47:50;53.67;;;21.93;;
5801;SDS011;2927;49.366;8.530;2023-02-13T08:50:20;50.00;;;21.57;;
5801;SDS011;2927;49.366;8.530;2023-02-13T08:52:45;57.00;;;22.30;;
5801;SDS011;2927;49.366;8.530;2023-02-13T08:55:11;66.03;;;22.77;;
5801;SDS011;2927;49.366;8.530;2023-02-13T08:57:36;49.83;;;21.33;;
5801;SDS011;2927;49.366;8.530;2023-02-13T09:00:02;51.97;;;22.00;;
5801;SDS011;2927;49.366;8.530;2023-02-13T09:02:28;57.13;;;22.30;;
5801;SDS011;2927;49.366;8.530;2023-02-13T09:04:53;54.40;;;20.10;;
5801;SDS011;2927;49.366;8.530;2023-02-13T09:07:19;47.93;;;19.57;;
5801;SDS011;2927;49.366;8.530;2023-02-13T09:09:44;50.83;;;21.13;;
5801;SDS011;2927;49.366;8.530;2023-02-13T09:12:10;45.30;;;19.90;;
5801;SDS011;2927;49.366;8.530;2023-02-13T09:14:37;54.00;;;21.80;;
5801;SDS011;2927;49.366;8.530;2023-02-13T09:17:03;48.60;;;21.77;;
5801;SDS011;2927;49.366;8.530;2023-02-13T09:19:29;44.73;;;20.50;;
5801;SDS011;2927;49.366;8.530;2023-02-13T09:21:54;51.97;;;18.40;;
5801;SDS011;2927;49.366;8.530;2023-02-13T09:24:20;52.77;;;25.57;;
5801;SDS011;2927;49.366;8.530;2023-02-13T09:26:45;40.40;;;19.90;;
5801;SDS011;2927;49.366;8.530;2023-02-13T09:29:11;42.30;;;21.13;;
5801;SDS011;2927;49.366;8.530;2023-02-13T09:31:36;39.33;;;20.10;;
5801;SDS011;2927;49.366;8.530;2023-02-13T09:34:02;45.00;;;21.43;;
5801;SDS011;2927;49.366;8.530;2023-02-13T09:36:28;37.13;;;19.93;;
5801;SDS011;2927;49.366;8.530;2023-02-13T09:38:54;37.17;;;18.87;;
5801;SDS011;2927;49.366;8.530;2023-02-13T09:41:27;36.63;;;18.37;;
5801;SDS011;2927;49.366;8.530;2023-02-13T09:44:00;33.10;;;18.50;;
5801;SDS011;2927;49.366;8.530;2023-02-13T09:46:32;30.23;;;16.93;;
5801;SDS011;2927;49.366;8.530;2023-02-13T09:49:00;32.07;;;15.80;;
5801;SDS011;2927;49.366;8.530;2023-02-13T09:51:30;27.60;;;15.20;;
5801;SDS011;2927;49.366;8.530;2023-02-13T09:54:05;30.30;;;15.70;;
5801;SDS011;2927;49.366;8.530;2023-02-13T09:59:00;22.03;;;12.33;;
5801;SDS011;2927;49.366;8.530;2023-02-13T10:01:45;23.40;;;13.27;;
5801;SDS011;2927;49.366;8.530;2023-02-13T10:07:03;20.20;;;12.47;;
5801;SDS011;2927;49.366;8.530;2023-02-13T10:09:39;21.43;;;11.50;;
5801;SDS011;2927;49.366;8.530;2023-02-13T10:15:20;25.30;;;14.20;;
5801;SDS011;2927;49.366;8.530;2023-02-13T10:17:53;22.60;;;13.70;;
5801;SDS011;2927;49.366;8.530;2023-02-13T10:22:54;23.70;;;12.57;;
5801;SDS011;2927;49.366;8.530;2023-02-13T10:25:29;25.90;;;13.47;;
5801;SDS011;2927;49.366;8.530;2023-02-13T10:28:09;24.20;;;12.50;;
5801;SDS011;2927;49.366;8.530;2023-02-13T10:30:51;20.80;;;12.97;;
5801;SDS011;2927;49.366;8.530;2023-02-13T10:33:31;21.60;;;12.43;;
5801;SDS011;2927;49.366;8.530;2023-02-13T10:38:37;20.70;;;12.43;;
5801;SDS011;2927;49.366;8.530;2023-02-13T10:46:41;24.30;;;12.27;;
5801;SDS011;2927;49.366;8.530;2023-02-13T11:01:24;19.97;;;11.00;;
5801;SDS011;2927;49.366;8.530;2023-02-13T11:04:20;23.70;;;10.53;;
5801;SDS011;2927;49.366;8.530;2023-02-13T11:06:51;19.23;;;9.87;;
5801;SDS011;2927;49.366;8.530;2023-02-13T11:09:23;18.13;;;10.40;;
5801;SDS011;2927;49.366;8.530;2023-02-13T11:11:49;17.90;;;10.30;;
5801;SDS011;2927;49.366;8.530;2023-02-13T11:19:28;19.03;;;9.93;;
5801;SDS011;2927;49.366;8.530;2023-02-13T11:21:56;15.83;;;9.83;;
5801;SDS011;2927;49.366;8.530;2023-02-13T11:24:30;16.37;;;9.80;;
5801;SDS011;2927;49.366;8.530;2023-02-13T11:27:00;15.27;;;9.10;;
5801;SDS011;2927;49.366;8.530;2023-02-13T11:29:32;16.33;;;9.80;;
5801;SDS011;2927;49.366;8.530;2023-02-13T11:32:16;15.93;;;9.17;;
5801;SDS011;2927;49.366;8.530;2023-02-13T11:34:44;15.77;;;9.90;;
5801;SDS011;2927;49.366;8.530;2023-02-13T11:39:40;17.73;;;10.33;;
5801;SDS011;2927;49.366;8.530;2023-02-13T11:42:14;14.40;;;8.37;;
5801;SDS011;2927;49.366;8.530;2023-02-13T11:44:43;15.40;;;8.70;;
5801;SDS011;2927;49.366;8.530;2023-02-13T11:47:15;16.20;;;8.30;;
5801;SDS011;2927;49.366;8.530;2023-02-13T11:49:53;12.30;;;8.10;;
5801;SDS011;2927;49.366;8.530;2023-02-13T11:52:23;14.57;;;9.33;;
5801;SDS011;2927;49.366;8.530;2023-02-13T11:54:56;14.90;;;8.90;;
5801;SDS011;2927;49.366;8.530;2023-02-13T11:57:30;18.47;;;9.63;;
5801;SDS011;2927;49.366;8.530;2023-02-13T12:00:24;17.43;;;9.80;;
5801;SDS011;2927;49.366;8.530;2023-02-13T12:02:51;17.40;;;9.60;;
5801;SDS011;2927;49.366;8.530;2023-02-13T12:05:21;19.73;;;9.37;;
5801;SDS011;2927;49.366;8.530;2023-02-13T12:07:48;16.83;;;10.57;;
5801;SDS011;2927;49.366;8.530;2023-02-13T12:12:44;18.10;;;9.80;;
5801;SDS011;2927;49.366;8.530;2023-02-13T12:15:32;18.20;;;11.43;;
5801;SDS011;2927;49.366;8.530;2023-02-13T12:20:42;16.70;;;9.23;;
5801;SDS011;2927;49.366;8.530;2023-02-13T12:25:58;12.90;;;8.03;;
5801;SDS011;2927;49.366;8.530;2023-02-13T12:28:32;14.50;;;8.77;;
5801;SDS011;2927;49.366;8.530;2023-02-13T12:31:12;21.63;;;9.50;;
5801;SDS011;2927;49.366;8.530;2023-02-13T12:36:28;16.47;;;9.93;;
5801;SDS011;2927;49.366;8.530;2023-02-13T12:39:17;20.57;;;10.27;;
5801;SDS011;2927;49.366;8.530;2023-02-13T12:56:31;17.67;;;9.63;;
5801;SDS011;2927;49.366;8.530;2023-02-13T13:05:22;13.40;;;8.00;;
5801;SDS011;2927;49.366;8.530;2023-02-13T13:11:12;17.50;;;9.17;;
5801;SDS011;2927;49.366;8.530;2023-02-13T13:13:55;12.90;;;8.40;;
5801;SDS011;2927;49.366;8.530;2023-02-13T13:17:12;16.10;;;8.30;;
5801;SDS011;2927;49.366;8.530;2023-02-13T13:19:33;14.20;;;9.20;;
5801;SDS011;2927;49.366;8.530;2023-02-13T13:22:17;20.00;;;10.30;;
5801;SDS011;2927;49.366;8.530;2023-02-13T13:27:32;17.13;;;10.00;;
5801;SDS011;2927;49.366;8.530;2023-02-13T13:30:19;17.03;;;9.73;;
5801;SDS011;2927;49.366;8.530;2023-02-13T13:32:53;16.00;;;9.67;;
5801;SDS011;2927;49.366;8.530;2023-02-13T13:35:30;12.53;;;8.00;;
5801;SDS011;2927;49.366;8.530;2023-02-13T13:40:50;11.57;;;7.70;;
5801;SDS011;2927;49.366;8.530;2023-02-13T13:43:31;12.60;;;7.37;;
5801;SDS011;2927;49.366;8.530;2023-02-13T13:49:26;14.73;;;8.10;;
5801;SDS011;2927;49.366;8.530;2023-02-13T13:54:45;11.80;;;7.13;;
5801;SDS011;2927;49.366;8.530;2023-02-13T13:57:15;8.40;;;6.87;;
5801;SDS011;2927;49.366;8.530;2023-02-13T14:05:07;12.53;;;7.77;;
5801;SDS011;2927;49.366;8.530;2023-02-13T14:07:43;12.70;;;8.20;;
5801;SDS011;2927;49.366;8.530;2023-02-13T14:15:48;12.20;;;7.80;;
5801;SDS011;2927;49.366;8.530;2023-02-13T14:25:44;16.27;;;8.03;;
5801;SDS011;2927;49.366;8.530;2023-02-13T14:28:20;15.73;;;8.70;;
5801;SDS011;2927;49.366;8.530;2023-02-13T14:30:50;18.17;;;8.80;;
5801;SDS011;2927;49.366;8.530;2023-02-13T14:33:24;14.53;;;8.43;;
5801;SDS011;2927;49.366;8.530;2023-02-13T14:36:08;18.00;;;8.53;;
5801;SDS011;2927;49.366;8.530;2023-02-13T14:38:44;13.17;;;7.87;;
5801;SDS011;2927;49.366;8.530;2023-02-13T14:44:24;10.80;;;7.50;;
5801;SDS011;2927;49.366;8.530;2023-02-13T14:47:21;15.63;;;8.40;;
5801;SDS011;2927;49.366;8.530;2023-02-13T14:49:56;13.63;;;8.17;;
5801;SDS011;2927;49.366;8.530;2023-02-13T14:52:25;13.77;;;7.40;;
5801;SDS011;2927;49.366;8.530;2023-02-13T14:55:04;10.93;;;6.87;;
5801;SDS011;2927;49.366;8.530;2023-02-13T14:57:42;8.70;;;6.67;;
5801;SDS011;2927;49.366;8.530;2023-02-13T15:00:18;45.03;;;20.57;;
5801;SDS011;2927;49.366;8.530;2023-02-13T15:02:55;53.63;;;22.93;;
5801;SDS011;2927;49.366;8.530;2023-02-13T15:05:29;20.60;;;11.07;;
5801;SDS011;2927;49.366;8.530;2023-02-13T15:08:16;14.60;;;7.33;;
5801;SDS011;2927;49.366;8.530;2023-02-13T15:10:49;11.27;;;7.33;;
5801;SDS011;2927;49.366;8.530;2023-02-13T15:13:37;12.97;;;7.47;;
5801;SDS011;2927;49.366;8.530;2023-02-13T15:16:07;10.47;;;5.97;;
5801;SDS011;2927;49.366;8.530;2023-02-13T15:18:39;6.90;;;5.30;;
5801;SDS011;2927;49.366;8.530;2023-02-13T15:21:14;9.17;;;5.73;;
5801;SDS011;2927;49.366;8.530;2023-02-13T15:23:40;5.67;;;4.73;;
5801;SDS011;2927;49.366;8.530;2023-02-13T15:26:07;16.27;;;5.97;;
5801;SDS011;2927;49.366;8.530;2023-02-13T15:28:33;7.50;;;4.20;;
5801;SDS011;2927;49.366;8.530;2023-02-13T15:31:03;5.90;;;3.70;;
5801;SDS011;2927;49.366;8.530;2023-02-13T15:33:49;3.80;;;2.50;;
5801;SDS011;2927;49.366;8.530;2023-02-13T15:36:19;5.13;;;3.60;;
5801;SDS011;2927;49.366;8.530;2023-02-13T15:38:46;6.53;;;3.73;;
5801;SDS011;2927;49.366;8.530;2023-02-13T15:43:42;4.17;;;3.77;;
5801;SDS011;2927;49.366;8.530;2023-02-13T15:46:23;4.63;;;3.00;;
5801;SDS011;2927;49.366;8.530;2023-02-13T15:48:54;3.00;;;2.80;;
5801;SDS011;2927;49.366;8.530;2023-02-13T15:51:24;6.37;;;4.73;;
5801;SDS011;2927;49.366;8.530;2023-02-13T15:56:26;6.13;;;4.30;;
5801;SDS011;2927;49.366;8.530;2023-02-13T15:58:52;6.63;;;4.00;;
5801;SDS011;2927;49.366;8.530;2023-02-13T16:01:19;8.30;;;4.90;;
5801;SDS011;2927;49.366;8.530;2023-02-13T16:03:46;5.37;;;3.30;;
5801;SDS011;2927;49.366;8.530;2023-02-13T16:06:18;6.50;;;4.00;;
5801;SDS011;2927;49.366;8.530;2023-02-13T16:08:50;3.90;;;3.17;;
5801;SDS011;2927;49.366;8.530;2023-02-13T16:14:11;6.37;;;3.33;;
5801;SDS011;2927;49.366;8.530;2023-02-13T16:19:23;8.23;;;5.30;;
5801;SDS011;2927;49.366;8.530;2023-02-13T16:21:55;7.43;;;5.40;;
5801;SDS011;2927;49.366;8.530;2023-02-13T16:24:23;9.40;;;6.57;;
5801;SDS011;2927;49.366;8.530;2023-02-13T16:26:50;9.63;;;6.20;;
5801;SDS011;2927;49.366;8.530;2023-02-13T16:29:22;11.57;;;7.20;;
5801;SDS011;2927;49.366;8.530;2023-02-13T16:31:52;14.77;;;7.20;;
5801;SDS011;2927;49.366;8.530;2023-02-13T16:34:28;15.70;;;8.00;;
5801;SDS011;2927;49.366;8.530;2023-02-13T16:36:55;13.10;;;7.63;;
5801;SDS011;2927;49.366;8.530;2023-02-13T16:39:25;12.77;;;8.20;;
5801;SDS011;2927;49.366;8.530;2023-02-13T16:41:56;13.43;;;9.27;;
5801;SDS011;2927;49.366;8.530;2023-02-13T16:44:24;16.40;;;8.93;;
5801;SDS011;2927;49.366;8.530;2023-02-13T16:47:01;16.93;;;8.53;;
5801;SDS011;2927;49.366;8.530;2023-02-13T16:49:32;15.33;;;7.77;;
5801;SDS011;2927;49.366;8.530;2023-02-13T16:52:07;13.57;;;8.93;;
5801;SDS011;2927;49.366;8.530;2023-02-13T16:55:12;13.07;;;8.07;;
5801;SDS011;2927;49.366;8.530;2023-02-13T16:57:38;17.13;;;9.43;;
5801;SDS011;2927;49.366;8.530;2023-02-13T17:00:06;15.20;;;8.70;;
5801;SDS011;2927;49.366;8.530;2023-02-13T17:02:44;23.70;;;8.57;;
5801;SDS011;2927;49.366;8.530;2023-02-13T17:12:43;13.40;;;7.80;;
5801;SDS011;2927;49.366;8.530;2023-02-13T17:15:10;16.67;;;7.53;;
5801;SDS011;2927;49.366;8.530;2023-02-13T17:17:38;14.83;;;9.23;;
5801;SDS011;2927;49.366;8.530;2023-02-13T17:20:04;19.57;;;10.07;;
5801;SDS011;2927;49.366;8.530;2023-02-13T17:22:35;17.67;;;9.73;;
5801;SDS011;2927;49.366;8.530;2023-02-13T17:25:07;17.10;;;9.50;;
5801;SDS011;2927;49.366;8.530;2023-02-13T17:27:39;19.60;;;11.10;;
5801;SDS011;2927;49.366;8.530;2023-02-13T17:30:05;21.87;;;10.40;;
5801;SDS011;2927;49.366;8.530;2023-02-13T17:32:31;16.90;;;10.17;;
5801;SDS011;2927;49.366;8.530;2023-02-13T17:34:56;22.80;;;11.80;;
5801;SDS011;2927;49.366;8.530;2023-02-13T17:37:23;18.47;;;10.33;;
5801;SDS011;2927;49.366;8.530;2023-02-13T17:39:50;17.70;;;10.30;;
5801;SDS011;2927;49.366;8.530;2023-02-13T17:42:17;22.83;;;11.37;;
5801;SDS011;2927;49.366;8.530;2023-02-13T17:44:51;25.70;;;11.17;;
5801;SDS011;2927;49.366;8.530;2023-02-13T17:47:18;38.67;;;14.63;;
5801;SDS011;2927;49.366;8.530;2023-02-13T17:49:44;29.03;;;14.70;;
5801;SDS011;2927;49.366;8.530;2023-02-13T17:52:12;27.20;;;14.13;;
5801;SDS011;2927;49.366;8.530;2023-02-13T17:54:40;22.00;;;11.80;;
5801;SDS011;2927;49.366;8.530;2023-02-13T17:57:07;27.13;;;13.07;;
5801;SDS011;2927;49.366;8.530;2023-02-13T17:59:33;31.20;;;14.07;;
5801;SDS011;2927;49.366;8.530;2023-02-13T18:01:58;27.60;;;13.10;;
5801;SDS011;2927;49.366;8.530;2023-02-13T18:04:24;35.23;;;15.33;;